Terminal Aerodrome Forecast
Issued by NWS

Home | Current Version | Previous Version | Text Only | Print | Product List | Glossary On
Versions: 1 2 3 4 5 6 7 8 9 10 11 12 13 14 15 16 17 18 19 20
000
FTUS45 KGJT 241135 AAB
TAFEGE
TAF AMD
KEGE 241135Z 2412/2512 11004KT P6SM FEW100
     FM241600 VRB03KT P6SM VCSH BKN080
     FM241800 26004KT P6SM VCTS SCT100CB BKN200
     FM242200 26006KT P6SM VCSH SCT110 BKN200
     FM250200 22006KT P6SM SCT150
     FM250500 14004KT P6SM SCT250
      AMD LTD TO CLD VIS AND WIND TIL 241300=

USA.gov is the U.S. government's official web portal to all federal, state and local government web resources and services.